Time;durP1;ratioP1;P1;durP2;ratioP2;P2;SDS_P1;SDS_P2;PMS_P1;PMS_P2;Temp;Humidity;BMP_temperature;BMP_pressure;BME280_temperature;BME280_humidity;BME280_pressure;Samples;Min_cycle;Max_cycle;Signal;HPM_P1;HPM_P2
2022/01/25 00:08:54;;;;;;;1.90;1.80;;;0.50;98.00;;;;;;5091988;28;20499;-67
2022/01/25 00:25:43;;;;;;;1.30;1.20;;;0.50;98.00;;;;;;5091730;28;20473;-66
2022/01/25 00:28:20;;;;;;;1.60;1.53;;;0.60;98.00;;;;;;5091434;28;20463;-66
2022/01/25 00:31:00;;;;;;;1.10;1.07;;;0.50;98.00;;;;;;5091568;28;20449;-66
2022/01/25 00:33:27;;;;;;;1.20;1.00;;;0.50;98.00;;;;;;5091554;28;20847;-66
2022/01/25 00:35:55;;;;;;;1.57;1.40;;;0.50;98.00;;;;;;5091322;28;20451;-66
2022/01/25 00:38:22;;;;;;;3.70;2.50;;;0.50;98.00;;;;;;5091426;28;20546;-66
2022/01/25 00:40:51;;;;;;;1.57;1.53;;;0.30;98.00;;;;;;5091407;28;20501;-66
2022/01/25 00:43:19;;;;;;;1.20;1.10;;;0.20;98.00;;;;;;5091257;28;21112;-66
2022/01/25 00:45:48;;;;;;;1.20;1.07;;;0.30;98.00;;;;;;5091354;28;20465;-66
2022/01/25 00:48:19;;;;;;;1.40;1.20;;;0.30;98.00;;;;;;5091434;28;20458;-67
2022/01/25 00:50:46;;;;;;;1.50;1.40;;;0.20;98.00;;;;;;5091224;28;20540;-67
2022/01/25 00:55:59;;;;;;;1.20;1.10;;;0.20;98.00;;;;;;5091461;28;20450;-66
2022/01/25 00:58:26;;;;;;;2.60;2.17;;;0.00;98.00;;;;;;5090979;28;20453;-67
2022/01/25 01:00:53;;;;;;;1.97;1.87;;;-0.10;98.00;;;;;;5091024;28;20495;-67
2022/01/25 01:03:20;;;;;;;1.40;1.30;;;0.00;98.00;;;;;;5091079;28;20573;-67
2022/01/25 01:05:47;;;;;;;1.17;1.00;;;0.00;98.00;;;;;;5091286;28;20463;-67
2022/01/25 01:08:14;;;;;;;2.17;1.93;;;0.10;98.00;;;;;;5090936;28;20451;-67
2022/01/25 01:10:42;;;;;;;2.03;1.53;;;0.00;98.00;;;;;;5090972;28;20516;-66
2022/01/25 01:16:00;;;;;;;2.63;2.03;;;0.10;98.00;;;;;;5090904;28;20450;-67
2022/01/25 01:29:41;;;;;;;2.00;1.70;;;0.00;98.00;;;;;;5090958;28;20473;-67
2022/01/25 01:32:24;;;;;;;1.50;1.40;;;-0.10;98.00;;;;;;5090838;28;20449;-67
2022/01/25 01:35:25;;;;;;;1.70;1.60;;;-0.10;98.00;;;;;;5090738;28;20486;-66
2022/01/25 01:38:10;;;;;;;1.77;1.73;;;-0.10;98.00;;;;;;5090468;28;21161;-67
2022/01/25 01:40:55;;;;;;;1.20;1.20;;;0.00;98.00;;;;;;5090648;28;20901;-68
2022/01/25 01:43:30;;;;;;;1.10;1.10;;;0.00;98.00;;;;;;5090487;28;20482;-67
2022/01/25 01:46:18;;;;;;;2.27;2.07;;;-0.20;98.00;;;;;;5090601;28;20532;-66
2022/01/25 01:48:52;;;;;;;4.30;2.67;;;-0.30;98.00;;;;;;5090704;28;20519;-66
2022/01/25 01:51:26;;;;;;;1.10;1.00;;;-0.30;98.00;;;;;;5090584;28;20968;-67
2022/01/25 01:53:54;;;;;;;2.57;2.40;;;-0.30;98.00;;;;;;5090482;28;20458;-67
2022/01/25 01:56:21;;;;;;;2.00;1.90;;;-0.30;98.00;;;;;;5090832;28;20509;-67
2022/01/25 01:58:48;;;;;;;1.20;1.10;;;-0.30;98.00;;;;;;5090465;28;20936;-66
2022/01/25 02:01:19;;;;;;;4.23;3.80;;;-0.30;98.00;;;;;;5090530;28;20872;-67
2022/01/25 02:03:46;;;;;;;1.10;1.10;;;-0.20;98.00;;;;;;5090367;28;20543;-66
2022/01/25 02:06:13;;;;;;;2.20;2.00;;;-0.10;98.00;;;;;;5090328;28;20502;-67
2022/01/25 02:08:40;;;;;;;1.13;1.10;;;-0.10;98.00;;;;;;5090500;28;20579;-66
2022/01/25 02:11:07;;;;;;;1.10;1.10;;;-0.10;98.00;;;;;;5093822;28;20973;-67
2022/01/25 02:13:37;;;;;;;1.10;1.03;;;0.00;98.00;;;;;;5094094;28;20511;-66
2022/01/25 02:16:07;;;;;;;1.40;1.30;;;0.00;98.00;;;;;;5094121;28;20450;-66
2022/01/25 02:24:07;;;;;;;1.40;1.27;;;-0.10;98.00;;;;;;5094208;28;20450;-66
2022/01/25 02:26:34;;;;;;;5.70;2.07;;;-0.30;98.00;;;;;;5093973;28;20536;-66
2022/01/25 02:29:01;;;;;;;2.90;2.20;;;-0.40;98.00;;;;;;5093988;28;20537;-67
2022/01/25 02:31:28;;;;;;;1.50;1.40;;;-0.50;98.00;;;;;;5093927;28;20453;-66
2022/01/25 02:33:55;;;;;;;1.90;1.80;;;-0.70;98.00;;;;;;5093685;28;20481;-66
2022/01/25 02:36:27;;;;;;;1.50;1.45;;;-0.70;98.00;;;;;;5093698;28;20256;-66
2022/01/25 02:38:57;;;;;;;1.10;1.10;;;-0.70;98.00;;;;;;5093661;28;20205;-66
2022/01/25 02:41:25;;;;;;;1.37;1.30;;;-0.60;98.00;;;;;;5093017;28;20488;-67
2022/01/25 02:43:52;;;;;;;4.27;2.27;;;-0.60;98.00;;;;;;5093575;28;20912;-67
2022/01/25 02:46:22;;;;;;;2.23;1.60;;;-0.60;98.00;;;;;;5093407;28;21226;-66
2022/01/25 02:48:53;;;;;;;1.10;1.10;;;-0.60;98.00;;;;;;5093342;28;20450;-66
2022/01/25 02:51:25;;;;;;;1.50;1.40;;;-0.60;98.00;;;;;;5093210;28;20477;-66
2022/01/25 02:53:54;;;;;;;1.53;1.50;;;-0.70;98.00;;;;;;5093396;28;20512;-66
2022/01/25 02:56:22;;;;;;;2.57;2.00;;;-0.80;98.00;;;;;;5093612;28;20482;-67
2022/01/25 02:58:49;;;;;;;1.50;1.40;;;-0.80;98.00;;;;;;5093482;28;20959;-66
2022/01/25 03:01:17;;;;;;;1.90;1.47;;;-0.80;98.00;;;;;;5093263;28;20457;-66
2022/01/25 03:03:44;;;;;;;2.67;2.47;;;-0.80;98.00;;;;;;5094155;28;20486;-66
2022/01/25 03:06:16;;;;;;;1.87;1.30;;;-0.70;98.00;;;;;;5093832;28;20537;-67
2022/01/25 03:08:45;;;;;;;1.47;1.37;;;-0.50;98.00;;;;;;5094354;28;20547;-66
2022/01/25 03:11:15;;;;;;;1.97;1.23;;;-0.60;98.00;;;;;;5092635;28;20458;-65
2022/01/25 03:13:50;;;;;;;1.67;1.57;;;-0.60;98.00;;;;;;5093179;28;20464;-66
2022/01/25 03:16:22;;;;;;;3.00;2.43;;;-0.70;98.00;;;;;;5093046;28;20933;-66
2022/01/25 03:18:50;;;;;;;1.77;1.40;;;-0.70;98.00;;;;;;5093143;28;20454;-66
2022/01/25 03:21:32;;;;;;;2.30;2.10;;;-0.70;98.00;;;;;;5092695;28;20592;-67
2022/01/25 03:24:01;;;;;;;1.20;1.10;;;-0.80;98.00;;;;;;5092643;28;20482;-66
2022/01/25 03:26:28;;;;;;;2.60;1.67;;;-0.80;98.00;;;;;;5092718;28;20503;-66
2022/01/25 03:28:56;;;;;;;3.50;1.50;;;-0.80;98.00;;;;;;5092810;28;20448;-65
2022/01/25 03:31:23;;;;;;;1.40;1.30;;;-0.90;98.00;;;;;;5092675;28;20494;-66
2022/01/25 03:33:50;;;;;;;1.60;1.50;;;-0.90;98.00;;;;;;5092671;28;20451;-67
2022/01/25 03:36:17;;;;;;;2.10;1.57;;;-0.90;98.00;;;;;;5092560;28;20848;-66
2022/01/25 03:38:45;;;;;;;3.63;2.10;;;-0.70;98.00;;;;;;5092720;28;20456;-66
2022/01/25 03:41:15;;;;;;;1.20;1.20;;;-0.80;98.00;;;;;;5092117;28;20465;-66
2022/01/25 03:43:44;;;;;;;1.30;1.20;;;-0.80;98.00;;;;;;5092468;28;21011;-65
2022/01/25 03:46:16;;;;;;;1.97;1.87;;;-0.80;98.00;;;;;;5092614;28;20460;-66
2022/01/25 03:51:30;;;;;;;1.63;1.40;;;-1.00;98.00;;;;;;5092799;28;20205;-66
2022/01/25 03:53:57;;;;;;;1.20;1.20;;;-1.10;98.00;;;;;;5092308;28;20458;-66
2022/01/25 03:56:26;;;;;;;2.47;2.23;;;-1.00;98.00;;;;;;5092570;28;20210;-67
2022/01/25 03:58:53;;;;;;;3.28;2.35;;;-1.10;98.00;;;;;;5092185;28;20497;-67
2022/01/25 04:01:20;;;;;;;1.30;1.20;;;-1.00;98.00;;;;;;5092155;28;20207;-66
2022/01/25 04:03:56;;;;;;;1.80;1.73;;;-1.00;98.00;;;;;;5091936;28;20564;-67
2022/01/25 04:06:24;;;;;;;1.88;1.65;;;-1.00;98.00;;;;;;5092027;28;20834;-66
2022/01/25 04:08:51;;;;;;;1.73;1.57;;;-0.90;98.00;;;;;;5091853;28;20208;-67
2022/01/25 04:11:18;;;;;;;2.35;2.17;;;-1.00;98.00;;;;;;5092107;28;20480;-66
2022/01/25 04:13:48;;;;;;;1.50;1.40;;;-1.00;98.00;;;;;;5091670;28;20286;-66
2022/01/25 04:16:22;;;;;;;1.10;1.00;;;-0.90;98.00;;;;;;5091813;28;20942;-67
2022/01/25 04:19:00;;;;;;;1.43;1.33;;;-0.90;98.00;;;;;;5074882;28;20253;-67
2022/01/25 04:26:59;;;;;;;1.40;1.40;;;-0.80;98.00;;;;;;5091903;28;20450;-66
2022/01/25 04:29:28;;;;;;;1.17;1.00;;;-0.80;98.00;;;;;;5091677;28;20453;-66
2022/01/25 04:31:58;;;;;;;2.07;1.93;;;-0.90;98.00;;;;;;5091102;28;20453;-66
2022/01/25 04:34:41;;;;;;;1.77;1.40;;;-0.90;98.00;;;;;;5091449;28;20895;-67
2022/01/25 04:51:18;;;;;;;2.65;2.05;;;-1.00;98.00;;;;;;5091257;28;20453;-67
2022/01/25 04:53:56;;;;;;;1.65;1.60;;;-1.10;98.00;;;;;;5090814;28;20252;-67
2022/01/25 04:56:29;;;;;;;1.33;1.30;;;-1.00;98.00;;;;;;5091414;28;20251;-66
2022/01/25 04:59:08;;;;;;;1.37;1.33;;;-0.90;98.00;;;;;;5091027;28;20600;-66
2022/01/25 05:01:38;;;;;;;1.73;1.53;;;-0.90;98.00;;;;;;5090581;28;20955;-66
2022/01/25 05:04:19;;;;;;;2.33;2.13;;;-1.00;98.00;;;;;;5091034;28;20571;-66
2022/01/25 05:06:49;;;;;;;3.80;2.73;;;-1.00;98.00;;;;;;5091410;28;20457;-66
2022/01/25 05:09:20;;;;;;;1.70;1.67;;;-1.00;98.00;;;;;;5091308;28;20460;-66
2022/01/25 05:11:49;;;;;;;2.70;1.70;;;-1.10;98.00;;;;;;5091532;28;20880;-66
2022/01/25 05:14:21;;;;;;;4.50;2.80;;;-1.20;98.00;;;;;;5091238;28;20487;-66
2022/01/25 05:16:54;;;;;;;1.40;1.20;;;-1.20;98.00;;;;;;5091235;28;20972;-66
2022/01/25 05:19:36;;;;;;;1.20;1.10;;;-1.10;98.00;;;;;;5091002;28;20460;-66
2022/01/25 05:22:07;;;;;;;1.10;1.00;;;-1.10;98.00;;;;;;5090983;28;20461;-66
2022/01/25 05:24:37;;;;;;;1.33;1.27;;;-1.00;98.00;;;;;;5090695;28;20485;-66
2022/01/25 05:27:05;;;;;;;1.70;1.57;;;-1.10;98.00;;;;;;5090823;28;20540;-66
2022/01/25 05:29:32;;;;;;;1.20;1.10;;;-1.20;98.00;;;;;;5090872;28;20948;-66
2022/01/25 05:32:01;;;;;;;1.70;1.63;;;-1.20;98.00;;;;;;5090888;28;20488;-65
2022/01/25 05:34:28;;;;;;;1.30;1.25;;;-1.30;98.00;;;;;;5090867;28;20868;-66
2022/01/25 05:36:55;;;;;;;1.30;1.30;;;-1.30;98.00;;;;;;5091044;28;20276;-68
2022/01/25 05:39:26;;;;;;;1.73;1.63;;;-1.40;98.00;;;;;;5090611;28;20492;-66
2022/01/25 05:41:59;;;;;;;1.52;1.50;;;-1.50;98.00;;;;;;5090744;28;20203;-66
2022/01/25 05:44:38;;;;;;;3.67;2.50;;;-1.60;98.00;;;;;;5092763;28;20228;-66
2022/01/25 05:47:12;;;;;;;2.63;1.77;;;-1.40;98.00;;;;;;5094706;28;20813;-67
2022/01/25 05:49:40;;;;;;;1.85;1.73;;;-1.40;98.00;;;;;;5094359;28;20476;-66
2022/01/25 05:52:10;;;;;;;1.10;1.00;;;-1.40;98.00;;;;;;5094736;28;20252;-67
2022/01/25 05:54:37;;;;;;;2.30;2.10;;;-1.40;98.00;;;;;;5094430;28;20455;-66
2022/01/25 05:57:05;;;;;;;1.20;1.20;;;-1.50;98.00;;;;;;5094267;28;20302;-66
2022/01/25 05:59:32;;;;;;;1.50;1.40;;;-1.70;98.00;;;;;;5094440;28;20488;-66
2022/01/25 06:01:59;;;;;;;1.90;1.83;;;-1.70;98.00;;;;;;5094290;28;20513;-66
2022/01/25 06:04:28;;;;;;;2.00;1.93;;;-1.70;98.00;;;;;;5094319;28;20537;-66
2022/01/25 06:06:55;;;;;;;2.33;1.75;;;-1.60;98.00;;;;;;5094248;28;20965;-66
2022/01/25 06:09:24;;;;;;;1.73;1.60;;;-1.70;98.00;;;;;;5094246;28;20234;-67
2022/01/25 06:11:51;;;;;;;1.40;1.30;;;-1.80;98.00;;;;;;5094248;28;20290;-65
2022/01/25 06:14:21;;;;;;;1.20;1.20;;;-1.80;98.00;;;;;;5094087;28;20632;-66
2022/01/25 06:16:48;;;;;;;1.75;1.70;;;-1.80;98.00;;;;;;5094140;28;20232;-66
2022/01/25 06:19:20;;;;;;;1.40;1.30;;;-1.70;98.00;;;;;;5093923;28;20290;-65
2022/01/25 06:21:48;;;;;;;1.35;1.33;;;-1.50;98.00;;;;;;5094003;28;20895;-66
2022/01/25 06:24:16;;;;;;;1.90;1.50;;;-1.50;98.00;;;;;;5093811;28;20271;-66
2022/01/25 06:26:44;;;;;;;1.83;1.73;;;-1.60;98.00;;;;;;5075999;28;20208;-66
2022/01/25 06:29:12;;;;;;;2.28;1.85;;;-1.60;98.00;;;;;;5093835;28;20484;-66
2022/01/25 06:31:39;;;;;;;3.72;2.47;;;-1.50;98.00;;;;;;5094026;28;20288;-65
2022/01/25 06:34:05;;;;;;;1.50;1.30;;;-1.50;98.00;;;;;;5093835;28;20200;-65
2022/01/25 06:36:32;;;;;;;1.40;1.30;;;-1.60;98.00;;;;;;5093899;28;20515;-66
2022/01/25 06:39:01;;;;;;;2.80;1.50;;;-1.60;98.00;;;;;;5093767;28;20465;-66
2022/01/25 06:41:28;;;;;;;1.20;1.13;;;-1.60;98.00;;;;;;5093662;28;20490;-66
2022/01/25 06:43:55;;;;;;;1.10;1.00;;;-1.70;98.00;;;;;;5093374;28;20284;-66
2022/01/25 06:46:23;;;;;;;1.40;1.27;;;-1.80;98.00;;;;;;5093463;28;20543;-66
2022/01/25 06:48:50;;;;;;;1.50;1.40;;;-1.80;98.00;;;;;;5093374;28;20462;-66
2022/01/25 06:51:20;;;;;;;1.17;1.00;;;-1.80;98.00;;;;;;5093224;28;20526;-66
2022/01/25 06:53:47;;;;;;;1.60;1.50;;;-1.80;98.00;;;;;;5075599;28;20206;-66
2022/01/25 06:56:16;;;;;;;2.25;1.48;;;-1.70;98.00;;;;;;5074752;28;20248;-67
2022/01/25 06:58:44;;;;;;;1.67;1.58;;;-1.70;98.00;;;;;;5093309;28;20250;-66
2022/01/25 07:01:11;;;;;;;1.10;1.02;;;-1.60;98.00;;;;;;5093082;28;20209;-66
2022/01/25 07:03:38;;;;;;;1.85;1.70;;;-1.70;98.00;;;;;;5093070;28;20315;-66
2022/01/25 07:06:05;;;;;;;1.92;1.83;;;-1.70;98.00;;;;;;5093043;28;20242;-67
2022/01/25 07:08:32;;;;;;;2.17;2.00;;;-1.80;98.00;;;;;;5093338;28;20241;-66
2022/01/25 07:10:59;;;;;;;2.43;2.23;;;-1.80;98.00;;;;;;5093058;28;20661;-66
2022/01/25 07:13:28;;;;;;;1.43;1.33;;;-1.80;98.00;;;;;;5092959;28;20884;-66
2022/01/25 07:15:55;;;;;;;2.00;1.85;;;-1.70;98.00;;;;;;5092996;28;20558;-66
2022/01/25 07:18:23;;;;;;;1.97;1.87;;;-1.80;98.00;;;;;;5092947;28;20290;-67
2022/01/25 07:20:50;;;;;;;1.50;1.42;;;-1.80;98.00;;;;;;5074747;28;21012;-65
2022/01/25 07:23:17;;;;;;;3.38;1.50;;;-1.80;98.00;;;;;;5092596;28;20612;-66
2022/01/25 07:25:44;;;;;;;3.00;2.45;;;-1.80;98.00;;;;;;5074904;28;20293;-66
2022/01/25 07:28:11;;;;;;;2.40;2.20;;;-1.80;98.00;;;;;;5092563;28;20618;-66
2022/01/25 07:30:40;;;;;;;1.20;1.10;;;-1.60;98.00;;;;;;5092525;28;20238;-66
2022/01/25 07:33:07;;;;;;;1.17;1.10;;;-1.50;98.00;;;;;;5092826;28;20206;-66
2022/01/25 07:35:34;;;;;;;2.17;2.00;;;-1.50;98.00;;;;;;5092441;28;20471;-66
2022/01/25 07:38:02;;;;;;;1.63;1.57;;;-1.70;98.00;;;;;;5092509;28;20238;-67
2022/01/25 07:40:30;;;;;;;1.50;1.30;;;-1.80;98.00;;;;;;5092253;28;20558;-66
2022/01/25 07:42:58;;;;;;;1.10;1.00;;;-1.80;98.00;;;;;;5092559;28;20202;-67
2022/01/25 07:45:25;;;;;;;1.40;1.30;;;-1.80;98.00;;;;;;5092154;28;20258;-66
2022/01/25 07:47:53;;;;;;;1.35;1.35;;;-1.80;98.00;;;;;;5092378;28;20211;-67
2022/01/25 07:50:21;;;;;;;1.55;1.50;;;-1.70;98.00;;;;;;5092045;28;20268;-65
2022/01/25 07:52:48;;;;;;;1.40;1.20;;;-1.60;98.00;;;;;;5092095;28;20234;-65
2022/01/25 07:55:18;;;;;;;1.95;1.85;;;-1.50;98.00;;;;;;5092158;28;20448;-65
2022/01/25 07:57:45;;;;;;;1.20;1.20;;;-1.40;98.00;;;;;;5058246;28;20206;-66
2022/01/25 08:00:13;;;;;;;1.10;1.10;;;-1.40;98.00;;;;;;5092675;28;20496;-66
2022/01/25 08:02:42;;;;;;;2.47;2.03;;;-1.50;98.00;;;;;;5092670;28;20213;-65
2022/01/25 08:05:12;;;;;;;5.60;2.30;;;-1.40;98.00;;;;;;5092132;28;20688;-66
2022/01/25 08:07:39;;;;;;;4.03;1.47;;;-1.40;98.00;;;;;;5092151;28;20490;-66
2022/01/25 08:10:07;;;;;;;2.20;2.03;;;-1.20;98.00;;;;;;5092523;28;20529;-66
2022/01/25 08:12:34;;;;;;;1.20;1.20;;;-1.10;98.00;;;;;;5092868;28;20328;-65
2022/01/25 08:15:03;;;;;;;1.63;1.30;;;-1.00;98.00;;;;;;5092062;28;20454;-65
2022/01/25 08:17:30;;;;;;;2.50;2.10;;;-0.90;98.00;;;;;;5074402;28;20205;-66
2022/01/25 08:19:57;;;;;;;2.20;2.00;;;-0.90;98.00;;;;;;5091574;28;20546;-65
2022/01/25 08:22:28;;;;;;;1.30;1.30;;;-0.90;98.00;;;;;;5091962;28;20544;-66
2022/01/25 08:24:55;;;;;;;2.40;2.13;;;-1.00;98.00;;;;;;5091691;28;20481;-67
2022/01/25 08:27:24;;;;;;;1.40;1.30;;;-1.10;98.00;;;;;;5091623;28;20537;-67
2022/01/25 08:29:52;;;;;;;1.33;1.27;;;-1.20;98.00;;;;;;5096492;28;20219;-68
2022/01/25 08:32:19;;;;;;;1.40;1.27;;;-1.30;98.00;;;;;;5108931;28;20934;-68
2022/01/25 08:34:46;;;;;;;2.50;1.63;;;-1.30;98.00;;;;;;5109558;28;20208;-66
2022/01/25 08:37:14;;;;;;;2.13;2.03;;;-1.30;98.00;;;;;;5109458;28;20927;-68
2022/01/25 08:39:42;;;;;;;1.47;1.37;;;-1.20;98.00;;;;;;5109698;28;20202;-65
2022/01/25 08:42:10;;;;;;;1.50;1.50;;;-1.10;98.00;;;;;;5109306;28;20537;-66
2022/01/25 08:44:37;;;;;;;1.50;1.40;;;-1.10;98.00;;;;;;5109276;28;20572;-65
2022/01/25 08:47:05;;;;;;;2.23;1.97;;;-1.00;98.00;;;;;;5109143;28;20506;-65
2022/01/25 08:49:34;;;;;;;1.20;1.20;;;-0.80;98.00;;;;;;5107316;28;20999;-66
2022/01/25 08:52:01;;;;;;;1.77;1.67;;;-0.50;98.00;;;;;;5108840;28;20499;-66
2022/01/25 08:54:31;;;;;;;1.60;1.30;;;-0.40;98.00;;;;;;5110538;28;20544;-67
2022/01/25 08:57:00;;;;;;;1.60;1.50;;;-0.40;98.00;;;;;;5111012;28;20489;-67
2022/01/25 08:59:28;;;;;;;1.23;1.20;;;-0.30;98.00;;;;;;5111447;28;20540;-66
2022/01/25 09:01:55;;;;;;;1.43;1.33;;;-0.20;98.00;;;;;;5110653;28;20493;-66
2022/01/25 09:04:22;;;;;;;2.90;2.67;;;0.00;98.00;;;;;;5111335;28;20523;-66
2022/01/25 09:06:49;;;;;;;1.83;1.73;;;0.50;98.00;;;;;;5111462;28;20530;-66
2022/01/25 09:09:16;;;;;;;1.40;1.20;;;0.80;98.00;;;;;;5111246;28;20515;-67
2022/01/25 09:11:43;;;;;;;1.83;1.73;;;0.90;98.00;;;;;;5111427;28;20458;-66
2022/01/25 09:14:12;;;;;;;1.60;1.50;;;0.80;98.00;;;;;;5111392;28;20492;-67
2022/01/25 09:16:47;;;;;;;2.67;1.70;;;0.80;98.00;;;;;;5111290;28;20782;-66
2022/01/25 09:19:15;;;;;;;1.47;1.37;;;0.60;98.00;;;;;;5113328;28;20541;-67
2022/01/25 09:21:42;;;;;;;3.63;1.40;;;0.40;98.00;;;;;;5115762;28;20456;-66
2022/01/25 09:24:09;;;;;;;1.77;1.67;;;0.30;98.00;;;;;;5115532;28;20516;-65
2022/01/25 09:26:37;;;;;;;1.10;1.10;;;0.20;98.00;;;;;;5115799;28;20465;-67
2022/01/25 09:29:04;;;;;;;1.80;1.50;;;0.20;98.00;;;;;;5115987;28;20481;-66
2022/01/25 09:31:32;;;;;;;1.30;1.20;;;0.40;98.00;;;;;;5115669;28;20878;-66
2022/01/25 09:33:59;;;;;;;1.70;1.60;;;0.50;98.00;;;;;;5115285;28;20542;-65
2022/01/25 09:36:26;;;;;;;2.67;1.93;;;0.60;98.00;;;;;;5115386;28;20500;-66
2022/01/25 09:38:54;;;;;;;1.93;1.83;;;0.70;98.00;;;;;;5115202;28;20453;-66
2022/01/25 09:41:21;;;;;;;1.40;1.30;;;0.70;98.00;;;;;;5115345;28;20545;-67
2022/01/25 09:43:49;;;;;;;1.57;1.47;;;0.90;98.00;;;;;;5115187;28;20453;-66
2022/01/25 09:46:16;;;;;;;3.20;1.50;;;1.00;98.00;;;;;;5114877;28;20482;-66
2022/01/25 09:48:44;;;;;;;1.23;1.20;;;1.10;98.00;;;;;;5115023;28;20508;-66
2022/01/25 09:51:12;;;;;;;1.77;1.50;;;1.20;98.00;;;;;;5114653;28;20502;-67
2022/01/25 09:53:42;;;;;;;1.67;1.57;;;1.30;98.00;;;;;;5114931;28;20897;-67
2022/01/25 09:56:09;;;;;;;1.67;1.57;;;1.40;98.00;;;;;;5115102;28;20960;-66
2022/01/25 09:58:37;;;;;;;1.40;1.37;;;1.40;98.00;;;;;;5114893;28;20489;-67
2022/01/25 10:01:07;;;;;;;1.67;1.30;;;1.30;98.00;;;;;;5114813;28;20480;-66
2022/01/25 10:03:38;;;;;;;1.90;1.77;;;1.30;98.00;;;;;;5114661;28;20724;-66
2022/01/25 10:06:12;;;;;;;1.27;1.23;;;1.30;98.00;;;;;;5114612;28;20485;-66
2022/01/25 10:08:40;;;;;;;1.40;1.30;;;1.30;98.00;;;;;;5114527;28;20539;-67
2022/01/25 10:11:08;;;;;;;1.70;1.60;;;1.30;98.00;;;;;;5114631;28;20529;-66
2022/01/25 10:13:37;;;;;;;1.50;1.50;;;1.30;98.00;;;;;;5114407;28;20456;-67
2022/01/25 10:16:05;;;;;;;1.27;1.23;;;1.40;98.00;;;;;;5114467;28;20951;-66
2022/01/25 10:18:45;;;;;;;2.20;2.03;;;1.60;98.00;;;;;;5114351;28;20483;-66
2022/01/25 10:21:18;;;;;;;1.53;1.50;;;1.90;98.00;;;;;;5114602;28;20454;-66
2022/01/25 10:24:07;;;;;;;3.20;2.33;;;2.00;98.00;;;;;;5114212;28;20461;-66
2022/01/25 10:26:36;;;;;;;2.07;1.77;;;2.10;98.00;;;;;;5114382;28;20469;-66
2022/01/25 10:29:03;;;;;;;2.23;1.47;;;2.10;98.00;;;;;;5096360;28;20550;-67
2022/01/25 10:31:39;;;;;;;1.20;1.10;;;2.10;98.00;;;;;;5113095;28;21006;-66
2022/01/25 10:34:07;;;;;;;2.23;1.83;;;2.30;98.00;;;;;;5114145;28;20510;-66
2022/01/25 10:36:44;;;;;;;1.20;1.10;;;2.50;98.00;;;;;;5114131;28;20490;-66
2022/01/25 10:39:12;;;;;;;1.73;1.30;;;2.50;98.00;;;;;;5095857;28;20470;-66
2022/01/25 10:41:40;;;;;;;1.73;1.40;;;2.60;98.00;;;;;;5113977;28;21039;-67
2022/01/25 10:44:09;;;;;;;1.57;1.47;;;2.60;98.00;;;;;;5095796;28;20457;-66
2022/01/25 10:46:36;;;;;;;1.20;1.20;;;2.60;98.00;;;;;;5113897;28;20517;-66
2022/01/25 10:49:06;;;;;;;1.97;1.87;;;2.60;98.00;;;;;;5113763;28;20805;-66
2022/01/25 10:51:37;;;;;;;1.10;1.00;;;2.60;98.00;;;;;;5114210;28;21005;-66
2022/01/25 10:54:08;;;;;;;1.10;1.10;;;2.70;98.00;;;;;;5096290;28;20976;-66
2022/01/25 10:56:37;;;;;;;1.73;1.63;;;2.80;98.00;;;;;;5113867;28;20486;-66
2022/01/25 10:59:07;;;;;;;1.90;1.83;;;2.90;98.00;;;;;;5113644;28;20486;-66
2022/01/25 11:01:36;;;;;;;1.40;1.33;;;3.20;98.00;;;;;;5113645;28;20533;-65
2022/01/25 11:04:09;;;;;;;1.30;1.27;;;3.20;98.00;;;;;;5113459;28;20505;-66
2022/01/25 11:06:38;;;;;;;1.57;1.47;;;3.30;98.00;;;;;;5113342;28;20493;-66
2022/01/25 11:09:07;;;;;;;1.53;1.30;;;3.50;98.00;;;;;;5113504;28;20479;-66
2022/01/25 11:11:39;;;;;;;1.40;1.40;;;3.80;98.00;;;;;;5113535;28;20837;-67
2022/01/25 11:16:51;;;;;;;2.83;2.67;;;3.90;98.00;;;;;;5084343;28;20515;-66
2022/01/25 11:19:19;;;;;;;1.30;1.30;;;4.10;98.00;;;;;;5113258;28;20502;-67
2022/01/25 11:21:48;;;;;;;1.50;1.50;;;4.30;98.00;;;;;;5113389;28;20867;-67
2022/01/25 11:24:17;;;;;;;1.50;1.50;;;4.50;98.00;;;;;;5113141;28;20586;-66
2022/01/25 11:26:46;;;;;;;1.97;1.30;;;4.70;98.00;;;;;;5112929;28;20486;-66
2022/01/25 11:29:16;;;;;;;1.20;1.20;;;4.90;98.00;;;;;;5112960;28;20551;-67
2022/01/25 11:31:48;;;;;;;1.70;1.50;;;5.00;98.00;;;;;;5113027;28;20495;-67
2022/01/25 11:34:15;;;;;;;2.73;2.60;;;5.10;98.00;;;;;;5095276;28;20452;-67
2022/01/25 11:36:46;;;;;;;1.30;1.30;;;5.20;98.00;;;;;;5112924;28;20994;-66
2022/01/25 11:39:21;;;;;;;1.70;1.60;;;5.40;98.00;;;;;;5112852;28;20460;-66
2022/01/25 11:41:48;;;;;;;1.97;1.87;;;5.70;98.00;;;;;;5112629;28;20542;-66
2022/01/25 11:44:19;;;;;;;1.20;1.13;;;5.90;98.00;;;;;;5112687;28;21114;-66
2022/01/25 11:46:50;;;;;;;1.37;1.33;;;6.10;98.00;;;;;;5113130;28;20477;-66
2022/01/25 11:49:20;;;;;;;1.70;1.53;;;6.20;98.00;;;;;;5112585;28;20479;-66
2022/01/25 11:52:11;;;;;;;1.67;1.57;;;6.30;98.00;;;;;;5112399;28;20531;-66
2022/01/25 11:54:40;;;;;;;1.50;1.43;;;6.50;98.00;;;;;;5112429;28;20542;-66
2022/01/25 11:57:13;;;;;;;1.60;1.30;;;6.70;98.00;;;;;;5112565;28;20914;-66
2022/01/25 11:59:41;;;;;;;2.90;1.30;;;6.90;98.00;;;;;;5112468;28;20483;-66
2022/01/25 12:02:08;;;;;;;1.77;1.50;;;7.20;98.00;;;;;;5112492;28;20494;-67
2022/01/25 12:04:36;;;;;;;2.50;2.30;;;7.40;98.00;;;;;;5112443;28;20460;-66
2022/01/25 12:07:13;;;;;;;2.80;1.37;;;7.60;98.00;;;;;;5112367;28;20506;-67
2022/01/25 12:09:46;;;;;;;1.20;1.10;;;7.70;98.00;;;;;;5112265;28;20460;-66
2022/01/25 12:12:15;;;;;;;2.50;2.27;;;8.00;98.00;;;;;;5112644;28;20936;-67
2022/01/25 12:14:46;;;;;;;1.33;1.30;;;8.20;98.00;;;;;;5112246;28;20489;-67
2022/01/25 12:17:18;;;;;;;1.63;1.53;;;8.40;98.00;;;;;;5094498;28;20497;-66
2022/01/25 12:19:50;;;;;;;1.90;1.90;;;8.60;98.00;;;;;;5112174;28;21020;-66
2022/01/25 12:22:34;;;;;;;3.70;1.80;;;8.60;98.00;;;;;;5112130;28;20460;-67
2022/01/25 12:25:11;;;;;;;1.20;1.13;;;8.70;98.00;;;;;;5112075;28;20460;-67
2022/01/25 12:27:45;;;;;;;1.70;1.50;;;8.80;98.00;;;;;;5112308;28;20477;-67
2022/01/25 12:30:17;;;;;;;1.63;1.63;;;8.80;98.00;;;;;;5111953;28;20987;-67
2022/01/25 12:32:58;;;;;;;1.50;1.40;;;8.90;98.00;;;;;;5112150;28;20455;-67
2022/01/25 12:35:40;;;;;;;1.80;1.50;;;9.10;98.00;;;;;;5111898;28;20456;-67
2022/01/25 12:38:10;;;;;;;3.13;2.13;;;9.20;98.00;;;;;;5094499;28;20455;-66
2022/01/25 12:41:00;;;;;;;2.07;1.60;;;9.30;98.00;;;;;;5111865;28;20494;-66
2022/01/25 12:43:30;;;;;;;2.07;1.63;;;9.60;98.00;;;;;;5111979;28;20495;-67
2022/01/25 12:46:00;;;;;;;2.90;1.93;;;9.70;97.30;;;;;;5111167;28;20543;-67
2022/01/25 12:48:30;;;;;;;1.70;1.60;;;9.80;96.90;;;;;;5111968;28;20498;-67
2022/01/25 12:51:01;;;;;;;1.30;1.20;;;10.10;98.00;;;;;;5111380;28;20462;-67
2022/01/25 12:53:30;;;;;;;1.50;1.50;;;10.20;96.40;;;;;;5111158;28;20489;-67
2022/01/25 12:56:02;;;;;;;1.83;1.80;;;10.50;95.90;;;;;;5111531;28;20454;-66
2022/01/25 12:58:31;;;;;;;1.83;1.47;;;10.50;94.30;;;;;;5111614;28;20499;-67
2022/01/25 13:01:00;;;;;;;1.50;1.50;;;10.30;95.20;;;;;;5111515;28;20512;-67
2022/01/25 13:03:30;;;;;;;1.70;1.60;;;10.60;95.20;;;;;;5093171;28;20462;-66
2022/01/25 13:06:02;;;;;;;2.63;1.93;;;10.70;94.40;;;;;;5111297;28;20490;-67
2022/01/25 13:08:34;;;;;;;1.50;1.40;;;10.80;94.30;;;;;;5093262;28;20555;-67
2022/01/25 13:11:39;;;;;;;1.40;1.33;;;11.00;93.80;;;;;;5111527;28;20716;-67
2022/01/25 13:14:32;;;;;;;1.90;1.80;;;11.20;93.80;;;;;;5111642;28;20481;-67
2022/01/25 13:17:01;;;;;;;3.60;2.53;;;11.30;92.70;;;;;;5111426;28;20454;-67
2022/01/25 13:19:32;;;;;;;1.67;1.60;;;11.50;92.90;;;;;;5112144;28;20517;-67
2022/01/25 13:22:05;;;;;;;3.20;3.07;;;11.50;91.80;;;;;;5111956;28;20976;-67
2022/01/25 13:24:36;;;;;;;1.60;1.30;;;11.50;92.60;;;;;;5112627;28;20488;-66
2022/01/25 13:27:14;;;;;;;3.10;1.43;;;11.50;91.40;;;;;;5111656;28;20479;-68
2022/01/25 13:32:34;;;;;;;1.93;1.87;;;12.00;90.20;;;;;;5111938;28;20463;-68
2022/01/25 13:35:04;;;;;;;3.53;2.30;;;11.70;91.50;;;;;;5111172;28;20460;-66
2022/01/25 13:37:32;;;;;;;5.00;1.60;;;11.50;92.50;;;;;;5111437;28;20968;-67
2022/01/25 13:40:03;;;;;;;4.87;2.60;;;11.10;92.90;;;;;;5111540;28;20492;-68
2022/01/25 13:42:41;;;;;;;1.70;1.43;;;10.70;94.30;;;;;;5111668;28;20882;-67
2022/01/25 13:48:06;;;;;;;2.13;2.00;;;9.90;96.10;;;;;;5111511;28;20638;-67
2022/01/25 13:50:38;;;;;;;3.23;2.23;;;9.50;98.00;;;;;;5093161;28;20517;-67
2022/01/25 13:53:08;;;;;;;1.50;1.27;;;9.00;98.00;;;;;;5111302;28;21292;-67
2022/01/25 13:55:36;;;;;;;1.50;1.37;;;8.90;98.00;;;;;;5111145;28;20485;-67
2022/01/25 13:58:19;;;;;;;1.70;1.63;;;8.80;98.00;;;;;;5110939;28;20546;-67
2022/01/25 14:00:47;;;;;;;6.03;2.13;;;8.50;98.00;;;;;;5110971;28;20446;-67
2022/01/25 14:03:15;;;;;;;1.73;1.70;;;8.30;98.00;;;;;;5110883;28;20801;-67
2022/01/25 14:05:43;;;;;;;2.57;2.37;;;8.30;98.00;;;;;;5113389;28;20524;-67
2022/01/25 14:08:10;;;;;;;2.43;2.07;;;8.30;98.00;;;;;;5096810;28;20454;-67
2022/01/25 14:10:43;;;;;;;3.20;1.93;;;8.20;98.00;;;;;;5114670;28;20457;-66
2022/01/25 14:21:42;;;;;;;1.70;1.57;;;7.90;98.00;;;;;;5114620;28;20467;-67
2022/01/25 14:24:09;;;;;;;2.23;1.60;;;8.00;98.00;;;;;;5114047;28;20473;-67
2022/01/25 14:26:38;;;;;;;1.80;1.50;;;8.10;98.00;;;;;;5114375;28;20480;-67
2022/01/25 14:29:17;;;;;;;2.07;1.57;;;7.90;98.00;;;;;;5114187;28;20946;-67